Terminal Aerodrome Forecast
Issued by NWS Tulsa, OK

Home | Current Version | Previous Version | Text Only | Print | Product List | Glossary On
Versions: 1 2 3 4 5 6 7 8 9 10 11 12 13 14 15
415
FTUS44 KTSA 241724
TAFFSM
TAF
KFSM 241724Z 2418/2518 34008KT P6SM SKC
     FM250100 33003KT P6SM BKN250
     FM251500 36006KT P6SM -RA OVC050=

USA.gov is the U.S. government's official web portal to all federal, state and local government web resources and services.